sensor_id;sensor_type;location;lat;lon;timestamp;P1;durP1;ratioP1;P2;durP2;ratioP2
58621;SDS011;44389;51.578;5.456;2023-04-03T00:01:06;24.10;;;18.02;;
58621;SDS011;44389;51.578;5.456;2023-04-03T00:03:32;20.80;;;18.60;;
58621;SDS011;44389;51.578;5.456;2023-04-03T00:05:59;23.02;;;18.30;;
58621;SDS011;44389;51.578;5.456;2023-04-03T00:08:25;21.90;;;19.58;;
58621;SDS011;44389;51.578;5.456;2023-04-03T00:10:50;30.88;;;20.77;;
58621;SDS011;44389;51.578;5.456;2023-04-03T00:13:16;26.45;;;20.58;;
58621;SDS011;44389;51.578;5.456;2023-04-03T00:15:42;23.35;;;20.02;;
58621;SDS011;44389;51.578;5.456;2023-04-03T00:18:07;25.38;;;18.33;;
58621;SDS011;44389;51.578;5.456;2023-04-03T00:20:34;23.40;;;19.23;;
58621;SDS011;44389;51.578;5.456;2023-04-03T00:23:00;22.00;;;18.00;;
58621;SDS011;44389;51.578;5.456;2023-04-03T00:25:26;23.15;;;17.38;;
58621;SDS011;44389;51.578;5.456;2023-04-03T00:27:51;21.95;;;17.92;;
58621;SDS011;44389;51.578;5.456;2023-04-03T00:30:18;19.63;;;15.90;;
58621;SDS011;44389;51.578;5.456;2023-04-03T00:32:44;22.05;;;18.08;;
58621;SDS011;44389;51.578;5.456;2023-04-03T00:35:10;20.55;;;17.17;;
58621;SDS011;44389;51.578;5.456;2023-04-03T00:37:35;21.23;;;15.13;;
58621;SDS011;44389;51.578;5.456;2023-04-03T00:40:01;22.63;;;17.10;;
58621;SDS011;44389;51.578;5.456;2023-04-03T00:42:27;23.05;;;18.35;;
58621;SDS011;44389;51.578;5.456;2023-04-03T00:47:21;22.88;;;17.45;;
58621;SDS011;44389;51.578;5.456;2023-04-03T00:49:47;21.88;;;18.25;;
58621;SDS011;44389;51.578;5.456;2023-04-03T00:52:14;24.48;;;17.73;;
58621;SDS011;44389;51.578;5.456;2023-04-03T00:54:43;22.98;;;18.92;;
58621;SDS011;44389;51.578;5.456;2023-04-03T00:57:10;20.20;;;16.38;;
58621;SDS011;44389;51.578;5.456;2023-04-03T00:59:38;19.40;;;15.77;;
58621;SDS011;44389;51.578;5.456;2023-04-03T01:02:09;21.48;;;16.70;;
58621;SDS011;44389;51.578;5.456;2023-04-03T01:04:35;19.38;;;17.08;;
58621;SDS011;44389;51.578;5.456;2023-04-03T01:07:02;23.17;;;18.90;;
58621;SDS011;44389;51.578;5.456;2023-04-03T01:09:31;24.63;;;19.90;;
58621;SDS011;44389;51.578;5.456;2023-04-03T01:14:46;22.90;;;17.48;;
58621;SDS011;44389;51.578;5.456;2023-04-03T01:17:29;20.55;;;17.90;;
58621;SDS011;44389;51.578;5.456;2023-04-03T01:20:03;24.33;;;17.55;;
58621;SDS011;44389;51.578;5.456;2023-04-03T01:28:06;22.17;;;18.90;;
58621;SDS011;44389;51.578;5.456;2023-04-03T01:30:34;25.67;;;19.00;;
58621;SDS011;44389;51.578;5.456;2023-04-03T01:33:04;21.90;;;18.30;;
58621;SDS011;44389;51.578;5.456;2023-04-03T01:35:30;26.58;;;17.88;;
58621;SDS011;44389;51.578;5.456;2023-04-03T01:37:55;21.08;;;17.75;;
58621;SDS011;44389;51.578;5.456;2023-04-03T01:40:21;22.85;;;18.50;;
58621;SDS011;44389;51.578;5.456;2023-04-03T01:42:46;13.23;;;7.35;;
58621;SDS011;44389;51.578;5.456;2023-04-03T01:45:12;18.52;;;16.20;;
58621;SDS011;44389;51.578;5.456;2023-04-03T01:47:37;18.80;;;16.00;;
58621;SDS011;44389;51.578;5.456;2023-04-03T01:50:02;19.38;;;15.43;;
58621;SDS011;44389;51.578;5.456;2023-04-03T01:52:28;19.50;;;15.75;;
58621;SDS011;44389;51.578;5.456;2023-04-03T01:54:53;19.83;;;17.77;;
58621;SDS011;44389;51.578;5.456;2023-04-03T01:57:19;26.73;;;17.10;;
58621;SDS011;44389;51.578;5.456;2023-04-03T01:59:44;20.58;;;16.33;;
58621;SDS011;44389;51.578;5.456;2023-04-03T02:02:10;22.70;;;17.75;;
58621;SDS011;44389;51.578;5.456;2023-04-03T02:04:37;20.73;;;16.20;;
58621;SDS011;44389;51.578;5.456;2023-04-03T02:07:02;19.67;;;15.77;;
58621;SDS011;44389;51.578;5.456;2023-04-03T02:09:28;20.65;;;15.00;;
58621;SDS011;44389;51.578;5.456;2023-04-03T02:11:53;18.10;;;14.90;;
58621;SDS011;44389;51.578;5.456;2023-04-03T02:14:18;21.10;;;16.33;;
58621;SDS011;44389;51.578;5.456;2023-04-03T02:16:44;20.52;;;15.90;;
58621;SDS011;44389;51.578;5.456;2023-04-03T02:19:09;18.92;;;14.75;;
58621;SDS011;44389;51.578;5.456;2023-04-03T02:21:34;18.08;;;15.00;;
58621;SDS011;44389;51.578;5.456;2023-04-03T02:24:00;20.10;;;15.45;;
58621;SDS011;44389;51.578;5.456;2023-04-03T02:26:25;18.73;;;15.10;;
58621;SDS011;44389;51.578;5.456;2023-04-03T02:28:51;21.52;;;14.90;;
58621;SDS011;44389;51.578;5.456;2023-04-03T02:31:16;19.65;;;15.40;;
58621;SDS011;44389;51.578;5.456;2023-04-03T02:33:42;19.88;;;14.43;;
58621;SDS011;44389;51.578;5.456;2023-04-03T02:36:08;17.92;;;14.75;;
58621;SDS011;44389;51.578;5.456;2023-04-03T02:38:36;16.20;;;14.07;;
58621;SDS011;44389;51.578;5.456;2023-04-03T02:41:02;17.30;;;13.55;;
58621;SDS011;44389;51.578;5.456;2023-04-03T02:45:55;17.67;;;14.05;;
58621;SDS011;44389;51.578;5.456;2023-04-03T02:48:20;19.08;;;12.80;;
58621;SDS011;44389;51.578;5.456;2023-04-03T02:50:45;16.45;;;11.77;;
58621;SDS011;44389;51.578;5.456;2023-04-03T02:53:11;19.98;;;12.23;;
58621;SDS011;44389;51.578;5.456;2023-04-03T02:55:36;15.02;;;11.75;;
58621;SDS011;44389;51.578;5.456;2023-04-03T02:58:02;20.67;;;11.77;;
58621;SDS011;44389;51.578;5.456;2023-04-03T03:00:31;19.60;;;10.77;;
58621;SDS011;44389;51.578;5.456;2023-04-03T03:02:57;13.73;;;9.82;;
58621;SDS011;44389;51.578;5.456;2023-04-03T03:05:22;15.18;;;10.30;;
58621;SDS011;44389;51.578;5.456;2023-04-03T03:07:47;13.93;;;9.80;;
58621;SDS011;44389;51.578;5.456;2023-04-03T03:10:13;14.68;;;9.55;;
58621;SDS011;44389;51.578;5.456;2023-04-03T03:12:38;13.45;;;9.07;;
58621;SDS011;44389;51.578;5.456;2023-04-03T03:15:05;13.48;;;9.18;;
58621;SDS011;44389;51.578;5.456;2023-04-03T03:17:31;14.30;;;8.60;;
58621;SDS011;44389;51.578;5.456;2023-04-03T03:19:57;13.18;;;8.65;;
58621;SDS011;44389;51.578;5.456;2023-04-03T03:22:22;16.13;;;8.95;;
58621;SDS011;44389;51.578;5.456;2023-04-03T03:24:47;11.50;;;8.13;;
58621;SDS011;44389;51.578;5.456;2023-04-03T03:27:12;14.73;;;8.18;;
58621;SDS011;44389;51.578;5.456;2023-04-03T03:29:38;12.80;;;8.27;;
58621;SDS011;44389;51.578;5.456;2023-04-03T03:32:03;15.63;;;8.63;;
58621;SDS011;44389;51.578;5.456;2023-04-03T03:34:28;15.63;;;8.13;;
58621;SDS011;44389;51.578;5.456;2023-04-03T03:36:54;13.50;;;8.25;;
58621;SDS011;44389;51.578;5.456;2023-04-03T03:39:20;11.35;;;7.57;;
58621;SDS011;44389;51.578;5.456;2023-04-03T03:41:45;13.55;;;7.43;;
58621;SDS011;44389;51.578;5.456;2023-04-03T03:44:10;12.93;;;7.07;;
58621;SDS011;44389;51.578;5.456;2023-04-03T03:46:36;12.95;;;7.20;;
58621;SDS011;44389;51.578;5.456;2023-04-03T03:49:01;12.07;;;6.80;;
58621;SDS011;44389;51.578;5.456;2023-04-03T03:51:26;11.70;;;6.32;;
58621;SDS011;44389;51.578;5.456;2023-04-03T03:53:54;12.52;;;6.68;;
58621;SDS011;44389;51.578;5.456;2023-04-03T03:56:20;10.55;;;6.75;;
58621;SDS011;44389;51.578;5.456;2023-04-03T03:58:45;11.15;;;6.68;;
58621;SDS011;44389;51.578;5.456;2023-04-03T04:01:10;12.00;;;6.18;;
58621;SDS011;44389;51.578;5.456;2023-04-03T04:03:36;9.18;;;6.32;;
58621;SDS011;44389;51.578;5.456;2023-04-03T04:06:02;12.13;;;6.07;;
58621;SDS011;44389;51.578;5.456;2023-04-03T04:08:27;10.55;;;6.10;;
58621;SDS011;44389;51.578;5.456;2023-04-03T04:10:52;10.10;;;6.15;;
58621;SDS011;44389;51.578;5.456;2023-04-03T04:13:18;14.07;;;6.55;;
58621;SDS011;44389;51.578;5.456;2023-04-03T04:15:43;11.02;;;6.22;;
58621;SDS011;44389;51.578;5.456;2023-04-03T04:18:08;13.15;;;6.47;;
58621;SDS011;44389;51.578;5.456;2023-04-03T04:20:34;11.73;;;6.32;;
58621;SDS011;44389;51.578;5.456;2023-04-03T04:22:59;8.80;;;5.97;;
58621;SDS011;44389;51.578;5.456;2023-04-03T04:25:24;11.80;;;6.72;;
58621;SDS011;44389;51.578;5.456;2023-04-03T04:27:50;14.23;;;7.10;;
58621;SDS011;44389;51.578;5.456;2023-04-03T04:30:15;13.00;;;6.68;;
58621;SDS011;44389;51.578;5.456;2023-04-03T04:32:40;11.05;;;6.47;;
58621;SDS011;44389;51.578;5.456;2023-04-03T04:35:06;12.23;;;6.00;;
58621;SDS011;44389;51.578;5.456;2023-04-03T04:37:31;10.15;;;5.90;;
58621;SDS011;44389;51.578;5.456;2023-04-03T04:39:57;11.23;;;6.10;;
58621;SDS011;44389;51.578;5.456;2023-04-03T04:42:22;9.65;;;5.90;;
58621;SDS011;44389;51.578;5.456;2023-04-03T04:44:47;12.50;;;6.40;;
58621;SDS011;44389;51.578;5.456;2023-04-03T04:47:13;14.20;;;6.60;;
58621;SDS011;44389;51.578;5.456;2023-04-03T04:49:38;10.18;;;5.70;;
58621;SDS011;44389;51.578;5.456;2023-04-03T04:52:04;13.40;;;6.50;;
58621;SDS011;44389;51.578;5.456;2023-04-03T04:54:30;14.05;;;6.38;;
58621;SDS011;44389;51.578;5.456;2023-04-03T04:56:55;9.63;;;6.55;;
58621;SDS011;44389;51.578;5.456;2023-04-03T04:59:20;12.13;;;6.13;;
58621;SDS011;44389;51.578;5.456;2023-04-03T05:01:46;12.48;;;6.60;;
58621;SDS011;44389;51.578;5.456;2023-04-03T05:04:11;11.32;;;5.80;;
58621;SDS011;44389;51.578;5.456;2023-04-03T05:06:37;11.60;;;6.25;;
58621;SDS011;44389;51.578;5.456;2023-04-03T05:09:03;11.23;;;5.90;;
58621;SDS011;44389;51.578;5.456;2023-04-03T05:11:28;16.02;;;5.97;;
58621;SDS011;44389;51.578;5.456;2023-04-03T05:13:54;10.68;;;6.13;;
58621;SDS011;44389;51.578;5.456;2023-04-03T05:16:20;12.35;;;6.43;;
58621;SDS011;44389;51.578;5.456;2023-04-03T05:18:45;17.60;;;7.40;;
58621;SDS011;44389;51.578;5.456;2023-04-03T05:21:10;11.93;;;6.28;;
58621;SDS011;44389;51.578;5.456;2023-04-03T05:23:36;12.95;;;6.15;;
58621;SDS011;44389;51.578;5.456;2023-04-03T05:26:01;14.38;;;6.45;;
58621;SDS011;44389;51.578;5.456;2023-04-03T05:28:26;13.23;;;5.75;;
58621;SDS011;44389;51.578;5.456;2023-04-03T05:30:55;13.32;;;5.55;;
58621;SDS011;44389;51.578;5.456;2023-04-03T05:33:22;11.35;;;6.07;;
58621;SDS011;44389;51.578;5.456;2023-04-03T05:35:48;9.30;;;5.60;;
58621;SDS011;44389;51.578;5.456;2023-04-03T05:38:13;12.93;;;5.78;;
58621;SDS011;44389;51.578;5.456;2023-04-03T05:40:39;10.88;;;5.47;;
58621;SDS011;44389;51.578;5.456;2023-04-03T05:43:04;11.68;;;5.78;;
58621;SDS011;44389;51.578;5.456;2023-04-03T05:45:29;13.43;;;5.82;;
58621;SDS011;44389;51.578;5.456;2023-04-03T05:47:55;14.77;;;6.25;;
58621;SDS011;44389;51.578;5.456;2023-04-03T05:50:20;11.60;;;5.60;;
58621;SDS011;44389;51.578;5.456;2023-04-03T05:52:46;13.60;;;5.95;;
58621;SDS011;44389;51.578;5.456;2023-04-03T05:55:14;10.40;;;5.22;;
58621;SDS011;44389;51.578;5.456;2023-04-03T05:57:40;12.00;;;5.43;;
58621;SDS011;44389;51.578;5.456;2023-04-03T06:00:06;9.88;;;5.10;;
58621;SDS011;44389;51.578;5.456;2023-04-03T06:02:34;9.02;;;5.38;;
58621;SDS011;44389;51.578;5.456;2023-04-03T06:05:00;10.25;;;5.13;;
58621;SDS011;44389;51.578;5.456;2023-04-03T06:07:26;10.35;;;5.50;;
58621;SDS011;44389;51.578;5.456;2023-04-03T06:09:53;14.02;;;5.75;;
58621;SDS011;44389;51.578;5.456;2023-04-03T06:12:21;15.27;;;5.55;;
58621;SDS011;44389;51.578;5.456;2023-04-03T06:14:47;9.50;;;4.97;;
58621;SDS011;44389;51.578;5.456;2023-04-03T06:17:13;11.10;;;5.10;;
58621;SDS011;44389;51.578;5.456;2023-04-03T06:19:40;9.27;;;4.97;;
58621;SDS011;44389;51.578;5.456;2023-04-03T06:22:05;12.18;;;5.03;;
58621;SDS011;44389;51.578;5.456;2023-04-03T06:24:31;10.57;;;4.78;;
58621;SDS011;44389;51.578;5.456;2023-04-03T06:26:56;10.65;;;5.28;;
58621;SDS011;44389;51.578;5.456;2023-04-03T06:29:22;15.68;;;5.40;;
58621;SDS011;44389;51.578;5.456;2023-04-03T06:31:49;12.48;;;5.10;;
58621;SDS011;44389;51.578;5.456;2023-04-03T06:34:15;11.43;;;5.10;;
58621;SDS011;44389;51.578;5.456;2023-04-03T06:36:41;11.48;;;5.15;;
58621;SDS011;44389;51.578;5.456;2023-04-03T06:39:08;10.93;;;5.00;;
58621;SDS011;44389;51.578;5.456;2023-04-03T06:41:38;13.48;;;5.60;;
58621;SDS011;44389;51.578;5.456;2023-04-03T06:44:03;11.07;;;5.38;;
58621;SDS011;44389;51.578;5.456;2023-04-03T06:46:28;11.95;;;5.55;;
58621;SDS011;44389;51.578;5.456;2023-04-03T06:48:54;11.48;;;5.60;;
58621;SDS011;44389;51.578;5.456;2023-04-03T06:53:50;8.98;;;4.97;;
58621;SDS011;44389;51.578;5.456;2023-04-03T06:56:17;7.43;;;3.30;;
58621;SDS011;44389;51.578;5.456;2023-04-03T06:58:43;10.20;;;4.93;;
58621;SDS011;44389;51.578;5.456;2023-04-03T07:01:09;12.90;;;5.25;;
58621;SDS011;44389;51.578;5.456;2023-04-03T07:03:36;11.50;;;5.70;;
58621;SDS011;44389;51.578;5.456;2023-04-03T07:06:02;15.65;;;5.65;;
58621;SDS011;44389;51.578;5.456;2023-04-03T07:08:28;14.15;;;4.97;;
58621;SDS011;44389;51.578;5.456;2023-04-03T07:10:54;12.13;;;5.05;;
58621;SDS011;44389;51.578;5.456;2023-04-03T07:13:19;14.98;;;5.00;;
58621;SDS011;44389;51.578;5.456;2023-04-03T07:15:45;10.63;;;4.82;;
58621;SDS011;44389;51.578;5.456;2023-04-03T07:18:10;14.32;;;5.30;;
58621;SDS011;44389;51.578;5.456;2023-04-03T07:20:36;10.80;;;5.10;;
58621;SDS011;44389;51.578;5.456;2023-04-03T07:23:01;13.82;;;5.32;;
58621;SDS011;44389;51.578;5.456;2023-04-03T07:25:27;15.93;;;5.68;;
58621;SDS011;44389;51.578;5.456;2023-04-03T07:27:53;16.13;;;5.28;;
58621;SDS011;44389;51.578;5.456;2023-04-03T07:30:19;10.98;;;5.05;;
58621;SDS011;44389;51.578;5.456;2023-04-03T07:32:45;12.93;;;4.93;;
58621;SDS011;44389;51.578;5.456;2023-04-03T07:35:10;11.85;;;5.03;;
58621;SDS011;44389;51.578;5.456;2023-04-03T07:37:36;10.05;;;4.97;;
58621;SDS011;44389;51.578;5.456;2023-04-03T07:40:01;12.50;;;4.60;;
58621;SDS011;44389;51.578;5.456;2023-04-03T07:42:28;15.63;;;5.30;;
58621;SDS011;44389;51.578;5.456;2023-04-03T07:44:53;12.20;;;4.85;;
58621;SDS011;44389;51.578;5.456;2023-04-03T07:47:19;11.75;;;4.50;;
58621;SDS011;44389;51.578;5.456;2023-04-03T07:49:45;11.05;;;5.00;;
58621;SDS011;44389;51.578;5.456;2023-04-03T07:52:11;13.15;;;4.68;;
58621;SDS011;44389;51.578;5.456;2023-04-03T07:54:36;14.95;;;5.03;;
58621;SDS011;44389;51.578;5.456;2023-04-03T07:57:02;11.85;;;4.00;;
58621;SDS011;44389;51.578;5.456;2023-04-03T07:59:27;14.05;;;4.55;;
58621;SDS011;44389;51.578;5.456;2023-04-03T08:01:53;11.38;;;4.22;;
58621;SDS011;44389;51.578;5.456;2023-04-03T08:04:18;15.05;;;4.72;;
58621;SDS011;44389;51.578;5.456;2023-04-03T08:06:43;10.80;;;4.05;;
58621;SDS011;44389;51.578;5.456;2023-04-03T08:09:09;13.57;;;4.63;;
58621;SDS011;44389;51.578;5.456;2023-04-03T08:11:34;12.15;;;3.95;;
58621;SDS011;44389;51.578;5.456;2023-04-03T08:14:01;9.52;;;4.38;;
58621;SDS011;44389;51.578;5.456;2023-04-03T08:16:27;9.40;;;3.97;;
58621;SDS011;44389;51.578;5.456;2023-04-03T08:18:53;10.98;;;4.25;;
58621;SDS011;44389;51.578;5.456;2023-04-03T08:21:19;12.48;;;4.70;;
58621;SDS011;44389;51.578;5.456;2023-04-03T08:23:47;8.98;;;3.80;;
58621;SDS011;44389;51.578;5.456;2023-04-03T08:26:15;7.88;;;3.78;;
58621;SDS011;44389;51.578;5.456;2023-04-03T08:31:09;9.68;;;3.97;;
58621;SDS011;44389;51.578;5.456;2023-04-03T08:33:38;9.52;;;4.25;;
58621;SDS011;44389;51.578;5.456;2023-04-03T08:36:04;7.33;;;3.47;;
58621;SDS011;44389;51.578;5.456;2023-04-03T08:38:31;10.60;;;3.67;;
58621;SDS011;44389;51.578;5.456;2023-04-03T08:41:01;8.73;;;3.45;;
58621;SDS011;44389;51.578;5.456;2023-04-03T08:44:38;10.00;;;3.50;;
58621;SDS011;44389;51.578;5.456;2023-04-03T08:49:59;13.68;;;4.18;;
58621;SDS011;44389;51.578;5.456;2023-04-03T08:52:42;10.18;;;3.15;;
58621;SDS011;44389;51.578;5.456;2023-04-03T08:55:28;7.40;;;3.65;;
58621;SDS011;44389;51.578;5.456;2023-04-03T08:58:05;7.43;;;2.60;;
58621;SDS011;44389;51.578;5.456;2023-04-03T09:00:51;8.77;;;2.95;;
58621;SDS011;44389;51.578;5.456;2023-04-03T09:03:22;8.88;;;3.47;;
58621;SDS011;44389;51.578;5.456;2023-04-03T09:05:50;6.13;;;2.30;;
58621;SDS011;44389;51.578;5.456;2023-04-03T09:08:24;7.72;;;2.78;;
58621;SDS011;44389;51.578;5.456;2023-04-03T09:22:51;4.72;;;1.90;;
58621;SDS011;44389;51.578;5.456;2023-04-03T09:25:32;6.15;;;2.38;;
58621;SDS011;44389;51.578;5.456;2023-04-03T09:28:01;6.20;;;2.13;;
58621;SDS011;44389;51.578;5.456;2023-04-03T09:30:27;4.50;;;2.13;;
58621;SDS011;44389;51.578;5.456;2023-04-03T09:32:54;3.97;;;1.80;;
58621;SDS011;44389;51.578;5.456;2023-04-03T09:37:48;4.28;;;1.40;;
58621;SDS011;44389;51.578;5.456;2023-04-03T09:43:00;4.80;;;1.88;;
58621;SDS011;44389;51.578;5.456;2023-04-03T09:45:29;4.13;;;2.00;;
58621;SDS011;44389;51.578;5.456;2023-04-03T09:53:30;2.55;;;1.20;;
58621;SDS011;44389;51.578;5.456;2023-04-03T09:56:04;3.15;;;1.10;;
58621;SDS011;44389;51.578;5.456;2023-04-03T09:58:50;2.45;;;1.10;;
58621;SDS011;44389;51.578;5.456;2023-04-03T10:04:14;5.28;;;1.05;;
58621;SDS011;44389;51.578;5.456;2023-04-03T10:06:51;4.90;;;1.38;;
58621;SDS011;44389;51.578;5.456;2023-04-03T10:14:21;2.47;;;1.10;;
58621;SDS011;44389;51.578;5.456;2023-04-03T10:25:36;3.30;;;1.20;;
58621;SDS011;44389;51.578;5.456;2023-04-03T10:28:15;2.22;;;0.93;;
58621;SDS011;44389;51.578;5.456;2023-04-03T10:30:54;3.22;;;0.95;;
58621;SDS011;44389;51.578;5.456;2023-04-03T10:36:23;2.08;;;0.93;;
58621;SDS011;44389;51.578;5.456;2023-04-03T10:42:24;4.18;;;1.58;;
58621;SDS011;44389;51.578;5.456;2023-04-03T10:45:03;3.00;;;1.10;;
58621;SDS011;44389;51.578;5.456;2023-04-03T10:47:37;4.15;;;1.10;;
58621;SDS011;44389;51.578;5.456;2023-04-03T10:58:02;3.38;;;1.00;;
58621;SDS011;44389;51.578;5.456;2023-04-03T11:03:11;3.10;;;1.10;;
58621;SDS011;44389;51.578;5.456;2023-04-03T11:05:51;2.70;;;0.98;;
58621;SDS011;44389;51.578;5.456;2023-04-03T11:08:33;1.88;;;0.90;;
58621;SDS011;44389;51.578;5.456;2023-04-03T11:11:24;3.55;;;1.00;;
58621;SDS011;44389;51.578;5.456;2023-04-03T11:13:55;3.20;;;1.00;;
58621;SDS011;44389;51.578;5.456;2023-04-03T11:16:27;2.97;;;1.13;;
58621;SDS011;44389;51.578;5.456;2023-04-03T11:19:42;2.65;;;1.00;;
58621;SDS011;44389;51.578;5.456;2023-04-03T11:21:56;3.67;;;1.23;;
58621;SDS011;44389;51.578;5.456;2023-04-03T11:24:29;2.17;;;0.90;;
58621;SDS011;44389;51.578;5.456;2023-04-03T11:26:58;3.00;;;1.20;;
58621;SDS011;44389;51.578;5.456;2023-04-03T11:29:32;3.03;;;1.13;;
58621;SDS011;44389;51.578;5.456;2023-04-03T11:35:14;2.38;;;0.73;;
58621;SDS011;44389;51.578;5.456;2023-04-03T11:37:43;2.80;;;1.13;;
58621;SDS011;44389;51.578;5.456;2023-04-03T11:42:40;1.55;;;0.80;;
58621;SDS011;44389;51.578;5.456;2023-04-03T11:50:30;2.58;;;1.00;;
58621;SDS011;44389;51.578;5.456;2023-04-03T12:05:58;2.55;;;1.05;;
58621;SDS011;44389;51.578;5.456;2023-04-03T12:16:22;3.95;;;1.02;;
58621;SDS011;44389;51.578;5.456;2023-04-03T12:21:17;2.97;;;1.20;;
58621;SDS011;44389;51.578;5.456;2023-04-03T12:27:01;1.97;;;1.03;;
58621;SDS011;44389;51.578;5.456;2023-04-03T12:46:21;3.72;;;1.25;;
58621;SDS011;44389;51.578;5.456;2023-04-03T12:48:49;3.15;;;1.35;;
58621;SDS011;44389;51.578;5.456;2023-04-03T12:51:19;4.20;;;1.60;;
58621;SDS011;44389;51.578;5.456;2023-04-03T12:53:51;3.50;;;1.30;;
58621;SDS011;44389;51.578;5.456;2023-04-03T12:56:26;2.88;;;1.38;;
58621;SDS011;44389;51.578;5.456;2023-04-03T12:58:54;2.60;;;1.30;;
58621;SDS011;44389;51.578;5.456;2023-04-03T13:01:24;4.35;;;1.75;;
58621;SDS011;44389;51.578;5.456;2023-04-03T13:06:27;3.08;;;1.23;;
58621;SDS011;44389;51.578;5.456;2023-04-03T13:08:58;3.45;;;1.50;;
58621;SDS011;44389;51.578;5.456;2023-04-03T13:11:30;5.63;;;1.48;;
58621;SDS011;44389;51.578;5.456;2023-04-03T13:14:02;4.70;;;1.67;;
58621;SDS011;44389;51.578;5.456;2023-04-03T13:16:30;5.85;;;1.52;;
58621;SDS011;44389;51.578;5.456;2023-04-03T13:18:56;4.00;;;1.45;;
58621;SDS011;44389;51.578;5.456;2023-04-03T13:21:26;3.83;;;1.73;;
58621;SDS011;44389;51.578;5.456;2023-04-03T13:23:54;2.95;;;1.20;;
58621;SDS011;44389;51.578;5.456;2023-04-03T13:26:24;4.43;;;1.50;;
58621;SDS011;44389;51.578;5.456;2023-04-03T13:28:53;4.07;;;1.20;;
58621;SDS011;44389;51.578;5.456;2023-04-03T13:31:22;3.83;;;1.40;;
58621;SDS011;44389;51.578;5.456;2023-04-03T13:34:12;3.10;;;1.27;;
58621;SDS011;44389;51.578;5.456;2023-04-03T13:37:03;4.32;;;1.55;;
58621;SDS011;44389;51.578;5.456;2023-04-03T13:39:35;2.83;;;1.55;;
58621;SDS011;44389;51.578;5.456;2023-04-03T13:42:16;3.80;;;1.27;;
58621;SDS011;44389;51.578;5.456;2023-04-03T13:44:47;3.83;;;1.40;;
58621;SDS011;44389;51.578;5.456;2023-04-03T13:47:18;4.13;;;1.40;;
58621;SDS011;44389;51.578;5.456;2023-04-03T13:49:46;4.10;;;1.40;;
58621;SDS011;44389;51.578;5.456;2023-04-03T13:57:49;2.88;;;1.55;;
58621;SDS011;44389;51.578;5.456;2023-04-03T14:00:28;4.10;;;1.60;;
58621;SDS011;44389;51.578;5.456;2023-04-03T14:03:03;3.22;;;1.63;;
58621;SDS011;44389;51.578;5.456;2023-04-03T14:05:37;3.45;;;1.40;;
58621;SDS011;44389;51.578;5.456;2023-04-03T14:08:02;4.18;;;1.90;;
58621;SDS011;44389;51.578;5.456;2023-04-03T14:10:28;3.25;;;1.48;;
58621;SDS011;44389;51.578;5.456;2023-04-03T14:12:54;5.28;;;1.85;;
58621;SDS011;44389;51.578;5.456;2023-04-03T14:15:24;4.88;;;2.03;;
58621;SDS011;44389;51.578;5.456;2023-04-03T14:17:53;2.95;;;1.50;;
58621;SDS011;44389;51.578;5.456;2023-04-03T14:20:21;3.78;;;1.88;;
58621;SDS011;44389;51.578;5.456;2023-04-03T14:22:49;4.78;;;1.75;;
58621;SDS011;44389;51.578;5.456;2023-04-03T14:25:16;4.32;;;1.83;;
58621;SDS011;44389;51.578;5.456;2023-04-03T14:27:44;2.88;;;1.40;;
58621;SDS011;44389;51.578;5.456;2023-04-03T14:30:22;3.25;;;1.40;;
58621;SDS011;44389;51.578;5.456;2023-04-03T14:32:52;3.35;;;1.65;;
58621;SDS011;44389;51.578;5.456;2023-04-03T14:35:18;5.05;;;1.90;;
58621;SDS011;44389;51.578;5.456;2023-04-03T14:37:44;3.22;;;1.70;;
58621;SDS011;44389;51.578;5.456;2023-04-03T14:40:12;6.18;;;2.10;;
58621;SDS011;44389;51.578;5.456;2023-04-03T14:42:43;3.55;;;1.70;;
58621;SDS011;44389;51.578;5.456;2023-04-03T14:45:10;4.53;;;1.65;;
58621;SDS011;44389;51.578;5.456;2023-04-03T14:47:40;5.40;;;1.98;;
58621;SDS011;44389;51.578;5.456;2023-04-03T14:50:12;4.53;;;2.08;;
58621;SDS011;44389;51.578;5.456;2023-04-03T14:52:40;5.65;;;2.25;;
58621;SDS011;44389;51.578;5.456;2023-04-03T14:55:06;3.85;;;1.88;;
58621;SDS011;44389;51.578;5.456;2023-04-03T14:57:32;4.05;;;1.85;;
58621;SDS011;44389;51.578;5.456;2023-04-03T14:59:58;4.10;;;1.88;;
58621;SDS011;44389;51.578;5.456;2023-04-03T15:05:02;4.55;;;2.05;;
58621;SDS011;44389;51.578;5.456;2023-04-03T15:07:30;4.53;;;1.60;;
58621;SDS011;44389;51.578;5.456;2023-04-03T15:12:36;4.00;;;1.70;;
58621;SDS011;44389;51.578;5.456;2023-04-03T15:15:01;6.68;;;2.42;;
58621;SDS011;44389;51.578;5.456;2023-04-03T15:17:26;4.72;;;1.70;;
58621;SDS011;44389;51.578;5.456;2023-04-03T15:19:52;4.90;;;1.90;;
58621;SDS011;44389;51.578;5.456;2023-04-03T15:22:20;5.00;;;1.85;;
58621;SDS011;44389;51.578;5.456;2023-04-03T15:24:46;4.50;;;1.98;;
58621;SDS011;44389;51.578;5.456;2023-04-03T15:27:11;3.47;;;1.90;;
58621;SDS011;44389;51.578;5.456;2023-04-03T15:29:38;3.85;;;1.80;;
58621;SDS011;44389;51.578;5.456;2023-04-03T15:32:05;4.75;;;2.00;;
58621;SDS011;44389;51.578;5.456;2023-04-03T15:34:30;5.50;;;2.08;;
58621;SDS011;44389;51.578;5.456;2023-04-03T15:36:56;6.90;;;2.03;;
58621;SDS011;44389;51.578;5.456;2023-04-03T15:39:21;5.95;;;2.53;;
58621;SDS011;44389;51.578;5.456;2023-04-03T15:41:48;5.65;;;2.38;;
58621;SDS011;44389;51.578;5.456;2023-04-03T15:44:13;4.18;;;1.83;;
58621;SDS011;44389;51.578;5.456;2023-04-03T15:46:42;4.30;;;2.10;;
58621;SDS011;44389;51.578;5.456;2023-04-03T15:49:08;6.10;;;2.17;;
58621;SDS011;44389;51.578;5.456;2023-04-03T15:51:33;3.35;;;1.70;;
58621;SDS011;44389;51.578;5.456;2023-04-03T15:53:58;5.88;;;2.20;;
58621;SDS011;44389;51.578;5.456;2023-04-03T15:56:24;4.28;;;2.17;;
58621;SDS011;44389;51.578;5.456;2023-04-03T15:58:49;5.15;;;2.08;;
58621;SDS011;44389;51.578;5.456;2023-04-03T16:01:14;4.70;;;2.15;;
58621;SDS011;44389;51.578;5.456;2023-04-03T16:03:40;6.40;;;2.15;;
58621;SDS011;44389;51.578;5.456;2023-04-03T16:06:15;4.45;;;1.83;;
58621;SDS011;44389;51.578;5.456;2023-04-03T16:08:41;2.97;;;1.52;;
58621;SDS011;44389;51.578;5.456;2023-04-03T16:11:07;5.32;;;2.28;;
58621;SDS011;44389;51.578;5.456;2023-04-03T16:13:32;4.97;;;2.60;;
58621;SDS011;44389;51.578;5.456;2023-04-03T16:15:58;5.63;;;2.97;;
58621;SDS011;44389;51.578;5.456;2023-04-03T16:18:24;5.07;;;2.50;;
58621;SDS011;44389;51.578;5.456;2023-04-03T16:20:50;4.50;;;2.00;;
58621;SDS011;44389;51.578;5.456;2023-04-03T16:23:16;7.03;;;2.38;;
58621;SDS011;44389;51.578;5.456;2023-04-03T16:25:41;6.05;;;2.15;;
58621;SDS011;44389;51.578;5.456;2023-04-03T16:28:11;5.60;;;2.00;;
58621;SDS011;44389;51.578;5.456;2023-04-03T16:30:40;6.63;;;2.30;;
58621;SDS011;44389;51.578;5.456;2023-04-03T16:33:06;6.95;;;2.13;;
58621;SDS011;44389;51.578;5.456;2023-04-03T16:35:31;5.65;;;2.00;;
58621;SDS011;44389;51.578;5.456;2023-04-03T16:37:56;7.63;;;2.20;;
58621;SDS011;44389;51.578;5.456;2023-04-03T16:40:22;6.47;;;1.90;;
58621;SDS011;44389;51.578;5.456;2023-04-03T16:42:47;5.13;;;1.90;;
58621;SDS011;44389;51.578;5.456;2023-04-03T16:45:12;4.93;;;2.05;;
58621;SDS011;44389;51.578;5.456;2023-04-03T16:47:38;6.25;;;2.00;;
58621;SDS011;44389;51.578;5.456;2023-04-03T16:50:03;6.63;;;2.05;;
58621;SDS011;44389;51.578;5.456;2023-04-03T16:52:29;8.95;;;2.15;;
58621;SDS011;44389;51.578;5.456;2023-04-03T16:54:54;5.55;;;2.00;;
58621;SDS011;44389;51.578;5.456;2023-04-03T16:57:20;4.93;;;2.03;;
58621;SDS011;44389;51.578;5.456;2023-04-03T16:59:47;4.57;;;2.15;;
58621;SDS011;44389;51.578;5.456;2023-04-03T17:02:14;5.80;;;1.98;;
58621;SDS011;44389;51.578;5.456;2023-04-03T17:04:39;7.03;;;2.40;;
58621;SDS011;44389;51.578;5.456;2023-04-03T17:07:05;5.40;;;2.08;;